createdAt,value
2023-03-18T00:02:03.200Z,82.30
2023-03-18T00:04:30.645Z,82.70
2023-03-18T00:06:58.826Z,82.90
2023-03-18T00:09:26.590Z,83.00
2023-03-18T00:11:56.609Z,83.00
2023-03-18T00:14:23.797Z,83.30
2023-03-18T00:16:50.805Z,83.30
2023-03-18T00:19:18.668Z,82.80
2023-03-18T00:21:45.853Z,82.30
2023-03-18T00:24:12.827Z,82.20
2023-03-18T00:26:39.813Z,82.50
2023-03-18T00:29:07.818Z,82.60
2023-03-18T00:31:34.807Z,82.90
2023-03-18T00:34:02.186Z,82.90
2023-03-18T00:36:30.502Z,82.80
2023-03-18T00:38:59.618Z,82.90
2023-03-18T00:41:33.019Z,82.80
2023-03-18T00:44:00.286Z,82.80
2023-03-18T00:46:33.209Z,82.90
2023-03-18T00:49:05.188Z,83.10
2023-03-18T00:51:35.236Z,83.30
2023-03-18T00:54:06.628Z,83.50
2023-03-18T00:56:35.978Z,83.40
2023-03-18T00:59:04.308Z,83.50
2023-03-18T01:01:32.138Z,83.60
2023-03-18T01:04:00.347Z,83.80
2023-03-18T01:06:32.792Z,84.00
2023-03-18T01:09:01.455Z,84.00
2023-03-18T01:11:29.864Z,84.00
2023-03-18T01:13:57.824Z,84.00
2023-03-18T01:16:24.820Z,84.10
2023-03-18T01:18:52.425Z,84.30
2023-03-18T01:21:19.565Z,84.30
2023-03-18T01:23:52.056Z,84.50
2023-03-18T01:26:19.813Z,84.70
2023-03-18T01:28:48.045Z,84.50
2023-03-18T01:31:15.498Z,84.30
2023-03-18T01:33:45.080Z,84.20
2023-03-18T01:36:12.581Z,84.10
2023-03-18T01:38:40.744Z,84.40
2023-03-18T01:41:11.932Z,84.70
2023-03-18T01:43:42.763Z,85.00
2023-03-18T01:46:39.033Z,85.20
2023-03-18T01:49:12.685Z,85.50
2023-03-18T01:51:43.703Z,85.70
2023-03-18T01:54:12.418Z,85.40
2023-03-18T01:56:41.434Z,85.20
2023-03-18T01:59:10.557Z,85.20
2023-03-18T02:02:09.288Z,85.10
2023-03-18T02:04:41.317Z,85.10
2023-03-18T02:07:29.818Z,85.00
2023-03-18T02:10:00.214Z,84.90
2023-03-18T02:12:41.393Z,84.90
2023-03-18T02:15:13.492Z,84.90
2023-03-18T02:17:45.238Z,84.60
2023-03-18T02:20:19.088Z,84.80
2023-03-18T02:23:13.426Z,85.30
2023-03-18T02:25:53.913Z,85.60
2023-03-18T02:28:28.071Z,86.00
2023-03-18T02:30:59.426Z,86.30
2023-03-18T02:33:40.429Z,86.30
2023-03-18T02:36:24.550Z,86.90
2023-03-18T02:38:52.892Z,86.20
2023-03-18T02:41:32.452Z,86.20
2023-03-18T02:44:00.260Z,86.30
2023-03-18T02:46:41.300Z,86.10
2023-03-18T02:49:10.412Z,86.70
2023-03-18T02:51:38.383Z,86.20
2023-03-18T02:54:10.592Z,86.40
2023-03-18T02:56:38.531Z,86.80
2023-03-18T02:59:06.017Z,86.90
2023-03-18T03:01:34.487Z,86.90
2023-03-18T03:04:02.665Z,86.80
2023-03-18T03:06:29.882Z,86.80
2023-03-18T03:08:57.488Z,86.90
2023-03-18T03:11:25.781Z,86.80
2023-03-18T03:13:56.073Z,86.70
2023-03-18T03:16:23.180Z,86.60
2023-03-18T03:18:50.676Z,86.80
2023-03-18T03:21:17.763Z,87.00
2023-03-18T03:23:46.171Z,87.20
2023-03-18T03:26:15.878Z,87.20
2023-03-18T03:28:43.340Z,87.00
2023-03-18T03:31:10.909Z,86.80
2023-03-18T03:33:41.872Z,87.00
2023-03-18T03:36:14.677Z,87.20
2023-03-18T03:38:41.723Z,87.50
2023-03-18T03:41:12.399Z,87.60
2023-03-18T03:43:41.600Z,87.80
2023-03-18T03:46:09.567Z,87.90
2023-03-18T03:48:39.446Z,88.00
2023-03-18T03:51:11.331Z,88.10
2023-03-18T03:53:38.472Z,88.20
2023-03-18T03:56:09.111Z,88.20
2023-03-18T03:58:36.338Z,88.30
2023-03-18T04:01:06.482Z,88.30
2023-03-18T04:03:34.071Z,88.40
2023-03-18T04:06:01.884Z,88.50
2023-03-18T04:08:31.737Z,88.70
2023-03-18T04:10:59.366Z,88.80
2023-03-18T04:13:26.532Z,88.70
2023-03-18T04:15:54.861Z,88.40
2023-03-18T04:18:21.955Z,88.40
2023-03-18T04:20:49.014Z,88.60
2023-03-18T04:23:28.929Z,88.80
2023-03-18T04:25:56.972Z,89.10
2023-03-18T04:28:24.219Z,89.10
2023-03-18T04:30:51.706Z,89.00
2023-03-18T04:33:19.598Z,89.50
2023-03-18T04:35:48.628Z,89.00
2023-03-18T04:38:18.014Z,89.10
2023-03-18T04:40:45.804Z,89.20
2023-03-18T04:43:12.957Z,89.30
2023-03-18T04:45:40.023Z,89.40
2023-03-18T04:48:07.249Z,89.60
2023-03-18T04:50:39.813Z,89.80
2023-03-18T04:53:10.062Z,89.90
2023-03-18T04:55:38.285Z,90.00
2023-03-18T04:58:08.398Z,90.00
2023-03-18T05:00:40.530Z,90.00
2023-03-18T05:03:28.377Z,89.60
2023-03-18T05:05:55.695Z,89.70
2023-03-18T05:08:29.549Z,90.00
2023-03-18T05:10:56.679Z,90.00
2023-03-18T05:13:24.128Z,90.00
2023-03-18T05:15:52.628Z,90.00
2023-03-18T05:18:19.555Z,90.00
2023-03-18T05:20:49.296Z,89.80
2023-03-18T05:23:18.158Z,89.70
2023-03-18T05:25:51.519Z,89.60
2023-03-18T05:28:21.518Z,89.60
2023-03-18T05:31:15.370Z,89.60
2023-03-18T05:33:44.010Z,89.40
2023-03-18T05:36:13.814Z,89.20
2023-03-18T05:38:52.613Z,89.20
2023-03-18T05:41:20.413Z,89.40
2023-03-18T05:43:47.670Z,89.40
2023-03-18T05:46:15.646Z,89.50
2023-03-18T05:49:01.045Z,89.20
2023-03-18T05:51:33.172Z,88.80
2023-03-18T05:54:01.486Z,88.60
2023-03-18T05:56:33.704Z,88.50
2023-03-18T05:59:06.018Z,88.40
2023-03-18T06:01:42.402Z,88.70
2023-03-18T06:04:10.242Z,89.10
2023-03-18T06:06:40.432Z,89.30
2023-03-18T06:09:09.088Z,89.30
2023-03-18T06:11:37.093Z,89.00
2023-03-18T06:14:05.598Z,89.00
2023-03-18T06:16:33.931Z,89.10
2023-03-18T06:19:02.554Z,89.20
2023-03-18T06:21:31.611Z,89.20
2023-03-18T06:23:58.808Z,89.50
2023-03-18T06:26:26.952Z,89.70
2023-03-18T06:28:55.064Z,89.60
2023-03-18T06:31:26.214Z,89.60
2023-03-18T06:33:53.493Z,89.70
2023-03-18T06:36:22.534Z,89.90
2023-03-18T06:38:52.124Z,89.70
2023-03-18T06:41:19.748Z,89.30
2023-03-18T06:44:04.140Z,89.20
2023-03-18T06:46:31.955Z,89.10
2023-03-18T06:49:01.965Z,89.20
2023-03-18T06:51:34.424Z,89.10
2023-03-18T06:54:02.114Z,88.40
2023-03-18T06:56:34.296Z,87.90
2023-03-18T06:59:10.861Z,87.50
2023-03-18T07:01:38.811Z,87.20
2023-03-18T07:04:07.006Z,87.10
2023-03-18T07:06:35.078Z,87.70
2023-03-18T07:09:02.032Z,87.10
2023-03-18T07:11:31.300Z,86.90
2023-03-18T07:14:02.735Z,86.80
2023-03-18T07:16:35.684Z,86.70
2023-03-18T07:19:04.202Z,86.60
2023-03-18T07:21:31.969Z,86.10
2023-03-18T07:23:59.217Z,85.70
2023-03-18T07:26:26.480Z,85.20
2023-03-18T07:28:53.559Z,84.80
2023-03-18T07:31:20.542Z,84.50
2023-03-18T07:33:47.667Z,84.20
2023-03-18T07:36:16.010Z,83.80
2023-03-18T07:38:43.285Z,83.20
2023-03-18T07:41:10.172Z,82.60
2023-03-18T07:43:37.519Z,82.00
2023-03-18T07:46:04.868Z,81.60
2023-03-18T07:48:34.214Z,81.20
2023-03-18T07:51:02.954Z,80.60
2023-03-18T07:53:30.131Z,80.40
2023-03-18T07:55:57.209Z,79.90
2023-03-18T07:58:24.648Z,78.90
2023-03-18T08:00:53.083Z,78.20
2023-03-18T08:03:20.174Z,77.80
2023-03-18T08:05:47.152Z,77.70
2023-03-18T08:08:14.268Z,77.00
2023-03-18T08:10:41.274Z,76.00
2023-03-18T08:13:08.396Z,75.00
2023-03-18T08:15:35.544Z,73.70
2023-03-18T08:18:02.769Z,73.90
2023-03-18T08:20:29.708Z,74.00
2023-03-18T08:22:57.170Z,73.20
2023-03-18T08:25:24.346Z,72.70
2023-03-18T08:27:52.418Z,71.80
2023-03-18T08:30:19.604Z,69.80
2023-03-18T08:32:47.155Z,70.40
2023-03-18T08:35:14.298Z,70.50
2023-03-18T08:37:41.411Z,70.50
2023-03-18T08:40:09.995Z,70.00
2023-03-18T08:42:37.142Z,68.40
2023-03-18T08:45:04.882Z,68.50
2023-03-18T08:47:32.538Z,67.90
2023-03-18T08:49:59.468Z,66.50
2023-03-18T08:52:26.530Z,66.50
2023-03-18T08:54:53.435Z,67.20
2023-03-18T08:57:20.767Z,66.90
2023-03-18T08:59:47.640Z,66.50
2023-03-18T09:02:18.489Z,65.90
2023-03-18T09:04:46.004Z,66.60
2023-03-18T09:07:13.233Z,66.50
2023-03-18T09:09:43.888Z,64.20
2023-03-18T09:12:12.593Z,64.50
2023-03-18T09:14:40.508Z,64.60
2023-03-18T09:17:08.027Z,65.10
2023-03-18T09:19:35.265Z,64.40
2023-03-18T09:22:02.250Z,62.50
2023-03-18T09:24:29.216Z,61.50
2023-03-18T09:26:56.203Z,62.50
2023-03-18T09:29:23.880Z,62.80
2023-03-18T09:31:50.982Z,62.60
2023-03-18T09:34:17.878Z,63.30
2023-03-18T09:36:51.042Z,57.10
2023-03-18T09:39:19.577Z,57.30
2023-03-18T09:42:13.321Z,56.00
2023-03-18T09:44:40.634Z,56.00
2023-03-18T09:47:45.669Z,56.20
2023-03-18T09:50:41.424Z,57.80
2023-03-18T09:53:24.052Z,56.50
2023-03-18T09:55:56.222Z,56.90
2023-03-18T09:58:28.484Z,54.10
2023-03-18T10:01:04.909Z,52.50
2023-03-18T10:03:38.223Z,52.60
2023-03-18T10:06:19.721Z,53.00
2023-03-18T10:08:52.862Z,49.40
2023-03-18T10:11:41.779Z,50.40
2023-03-18T10:14:36.081Z,51.30
2023-03-18T10:17:17.024Z,51.50
2023-03-18T10:19:59.270Z,51.70
2023-03-18T10:22:26.175Z,52.40
2023-03-18T10:25:20.818Z,51.40
2023-03-18T10:28:27.435Z,51.50
2023-03-18T10:31:11.358Z,52.10
2023-03-18T10:34:02.013Z,51.50
2023-03-18T10:36:59.941Z,50.90
2023-03-18T10:39:28.801Z,51.60
2023-03-18T10:41:58.431Z,52.10
2023-03-18T10:44:36.789Z,50.50
2023-03-18T10:47:15.690Z,50.60
2023-03-18T10:50:06.367Z,49.30
2023-03-18T10:53:02.379Z,49.40
2023-03-18T10:55:35.423Z,48.90
2023-03-18T10:58:15.954Z,49.10
2023-03-18T11:00:44.989Z,48.70
2023-03-18T11:03:43.964Z,49.10
2023-03-18T11:06:41.826Z,49.80
2023-03-18T11:09:15.693Z,48.30
2023-03-18T11:11:44.157Z,48.60
2023-03-18T11:14:22.795Z,47.50
2023-03-18T11:16:58.005Z,47.20
2023-03-18T11:19:32.330Z,47.70
2023-03-18T11:22:23.171Z,48.00
2023-03-18T11:25:12.132Z,48.50
2023-03-18T11:27:43.791Z,48.20
2023-03-18T11:30:36.329Z,47.80
2023-03-18T11:33:11.826Z,47.60
2023-03-18T11:35:53.203Z,45.80
2023-03-18T11:38:34.995Z,44.70
2023-03-18T11:41:13.231Z,45.50
2023-03-18T11:44:02.110Z,46.00
2023-03-18T11:46:36.199Z,43.30
2023-03-18T11:49:04.132Z,42.80
2023-03-18T11:52:08.338Z,38.90
2023-03-18T11:55:04.067Z,40.00
2023-03-18T11:57:52.671Z,41.80
2023-03-18T12:00:52.694Z,40.80
2023-03-18T12:03:38.406Z,41.20
2023-03-18T12:06:11.260Z,41.60
2023-03-18T12:08:48.036Z,41.20
2023-03-18T12:11:47.123Z,42.10
2023-03-18T12:14:20.036Z,41.30
2023-03-18T12:17:11.768Z,40.10
2023-03-18T12:20:00.054Z,41.30
2023-03-18T12:22:49.572Z,41.20
2023-03-18T12:25:35.087Z,39.70
2023-03-18T12:28:14.596Z,40.60
2023-03-18T12:30:56.512Z,41.70
2023-03-18T12:33:57.442Z,40.90
2023-03-18T12:36:46.272Z,40.40
2023-03-18T12:39:31.277Z,41.10
2023-03-18T12:42:03.989Z,40.00
2023-03-18T12:44:46.717Z,40.40
2023-03-18T12:47:18.167Z,40.40
2023-03-18T12:50:00.423Z,41.30
2023-03-18T12:52:44.370Z,41.80
2023-03-18T12:55:16.964Z,41.90
2023-03-18T12:58:04.337Z,40.90
2023-03-18T13:01:06.918Z,41.40
2023-03-18T13:03:37.867Z,42.70
2023-03-18T13:06:22.938Z,41.10
2023-03-18T13:09:04.817Z,42.70
2023-03-18T13:11:46.816Z,42.80
2023-03-18T13:14:41.205Z,43.00
2023-03-18T13:17:15.120Z,41.70
2023-03-18T13:19:43.420Z,42.20
2023-03-18T13:22:29.075Z,42.00
2023-03-18T13:25:15.706Z,41.50
2023-03-18T13:28:20.403Z,43.80
2023-03-18T13:31:20.240Z,42.70
2023-03-18T13:34:06.077Z,42.80
2023-03-18T13:36:54.648Z,41.60
2023-03-18T13:39:27.596Z,42.50
2023-03-18T13:42:17.942Z,41.80
2023-03-18T13:44:55.316Z,43.20
2023-03-18T13:47:23.709Z,43.20
2023-03-18T13:50:00.520Z,43.90
2023-03-18T13:52:43.038Z,43.20
2023-03-18T13:55:25.293Z,42.50
2023-03-18T13:58:04.963Z,42.40
2023-03-18T14:00:54.746Z,43.20
2023-03-18T14:03:51.152Z,43.30
2023-03-18T14:06:36.837Z,42.50
2023-03-18T14:09:22.963Z,42.70
2023-03-18T14:11:52.934Z,44.10
2023-03-18T14:14:51.342Z,43.60
2023-03-18T14:17:41.924Z,44.60
2023-03-18T14:20:17.780Z,44.30
2023-03-18T14:22:52.956Z,44.00
2023-03-18T14:25:25.226Z,43.90
2023-03-18T14:28:13.421Z,44.10
2023-03-18T14:30:44.136Z,44.30
2023-03-18T14:33:20.222Z,43.70
2023-03-18T14:35:58.274Z,43.50
2023-03-18T14:38:31.489Z,43.30
2023-03-18T14:41:00.401Z,43.30
2023-03-18T14:43:39.218Z,42.80
2023-03-18T14:46:17.608Z,43.70
2023-03-18T14:48:46.134Z,44.40
2023-03-18T14:51:22.112Z,44.00
2023-03-18T14:54:14.495Z,44.90
2023-03-18T14:56:42.531Z,45.40
2023-03-18T14:59:15.844Z,44.10
2023-03-18T15:01:48.049Z,43.90
2023-03-18T15:04:19.573Z,44.00
2023-03-18T15:06:46.796Z,43.50
2023-03-18T15:09:27.620Z,43.20
2023-03-18T15:11:54.803Z,43.70
2023-03-18T15:14:27.843Z,44.60
2023-03-18T15:17:12.342Z,44.70
2023-03-18T15:19:39.435Z,45.20
2023-03-18T15:22:07.500Z,45.60
2023-03-18T15:24:35.132Z,46.10
2023-03-18T15:27:13.540Z,46.50
2023-03-18T15:29:53.384Z,45.10
2023-03-18T15:32:28.528Z,45.10
2023-03-18T15:35:14.088Z,46.10
2023-03-18T15:37:43.968Z,46.10
2023-03-18T15:40:32.961Z,46.80
2023-03-18T15:43:27.600Z,47.60
2023-03-18T15:46:05.226Z,48.60
2023-03-18T15:48:47.897Z,50.10
2023-03-18T15:51:26.922Z,50.70
2023-03-18T15:53:58.156Z,50.70
2023-03-18T15:56:31.447Z,51.30
2023-03-18T15:59:18.751Z,51.40
2023-03-18T16:01:47.286Z,51.90
2023-03-18T16:04:17.436Z,52.10
2023-03-18T16:06:45.037Z,52.10
2023-03-18T16:09:22.190Z,52.20
2023-03-18T16:12:25.191Z,52.40
2023-03-18T16:14:54.225Z,52.70
2023-03-18T16:17:22.205Z,53.10
2023-03-18T16:19:54.250Z,53.20
2023-03-18T16:22:22.143Z,53.50
2023-03-18T16:24:49.631Z,54.00
2023-03-18T16:27:35.262Z,54.30
2023-03-18T16:30:02.475Z,54.80
2023-03-18T16:32:29.613Z,55.70
2023-03-18T16:34:56.696Z,57.40
2023-03-18T16:37:26.704Z,58.70
2023-03-18T16:39:55.807Z,59.70
2023-03-18T16:42:24.026Z,60.70
2023-03-18T16:44:52.023Z,61.20
2023-03-18T16:47:25.249Z,61.90
2023-03-18T16:49:52.552Z,62.40
2023-03-18T16:52:19.659Z,63.00
2023-03-18T16:54:46.872Z,63.70
2023-03-18T16:57:20.058Z,64.20
2023-03-18T16:59:50.942Z,64.80
2023-03-18T17:02:31.101Z,65.10
2023-03-18T17:04:58.711Z,65.90
2023-03-18T17:07:25.726Z,66.40
2023-03-18T17:09:53.466Z,66.70
2023-03-18T17:12:22.012Z,67.20
2023-03-18T17:14:58.945Z,67.50
2023-03-18T17:17:35.811Z,67.70
2023-03-18T17:20:05.009Z,68.00
2023-03-18T17:22:33.386Z,68.20
2023-03-18T17:25:02.736Z,68.50
2023-03-18T17:27:33.954Z,69.00
2023-03-18T17:30:01.492Z,69.40
2023-03-18T17:32:28.596Z,69.70
2023-03-18T17:34:56.269Z,69.90
2023-03-18T17:37:23.673Z,70.10
2023-03-18T17:39:50.741Z,70.20
2023-03-18T17:42:35.910Z,70.50
2023-03-18T17:45:22.536Z,70.70
2023-03-18T17:47:50.252Z,71.00
2023-03-18T17:50:18.637Z,71.00
2023-03-18T17:52:48.643Z,71.00
2023-03-18T17:55:22.673Z,71.10
2023-03-18T17:57:51.553Z,71.30
2023-03-18T18:00:25.047Z,71.40
2023-03-18T18:02:57.951Z,71.30
2023-03-18T18:05:25.035Z,71.40
2023-03-18T18:07:53.053Z,71.50
2023-03-18T18:10:20.822Z,71.60
2023-03-18T18:12:49.989Z,71.60
2023-03-18T18:15:27.619Z,71.70
2023-03-18T18:17:55.659Z,71.90
2023-03-18T18:20:22.744Z,72.00
2023-03-18T18:22:55.945Z,72.00
2023-03-18T18:25:26.908Z,72.30
2023-03-18T18:27:54.548Z,72.50
2023-03-18T18:30:23.826Z,72.80
2023-03-18T18:32:51.070Z,73.00
2023-03-18T18:35:21.240Z,73.30
2023-03-18T18:37:49.854Z,73.60
2023-03-18T18:40:18.101Z,73.90
2023-03-18T18:42:45.214Z,74.20
2023-03-18T18:45:18.192Z,74.60
2023-03-18T18:47:45.353Z,75.20
2023-03-18T18:50:24.221Z,75.80
2023-03-18T18:52:51.315Z,76.20
2023-03-18T18:55:18.486Z,76.40
2023-03-18T18:57:45.804Z,76.50
2023-03-18T19:00:21.981Z,76.90
2023-03-18T19:02:57.258Z,77.20
2023-03-18T19:05:24.450Z,77.50
2023-03-18T19:07:52.583Z,77.80
2023-03-18T19:10:19.700Z,78.10
2023-03-18T19:12:47.184Z,78.30
2023-03-18T19:15:15.698Z,78.50
2023-03-18T19:17:43.494Z,78.90
2023-03-18T19:20:26.808Z,79.20
2023-03-18T19:22:54.114Z,79.20
2023-03-18T19:25:21.015Z,79.20
2023-03-18T19:27:48.254Z,79.20
2023-03-18T19:30:23.438Z,79.20
2023-03-18T19:32:51.119Z,79.10
2023-03-18T19:35:18.108Z,79.10
2023-03-18T19:37:47.375Z,79.20
2023-03-18T19:40:20.421Z,79.40
2023-03-18T19:42:47.650Z,79.60
2023-03-18T19:45:14.829Z,79.70
2023-03-18T19:47:42.676Z,79.80
2023-03-18T19:50:17.977Z,79.80
2023-03-18T19:52:46.038Z,80.00
2023-03-18T19:55:15.245Z,80.00
2023-03-18T19:57:48.427Z,80.20
2023-03-18T20:00:21.988Z,80.40
2023-03-18T20:02:50.905Z,80.80
2023-03-18T20:05:23.634Z,81.00
2023-03-18T20:07:50.994Z,81.10
2023-03-18T20:10:19.520Z,81.20
2023-03-18T20:12:48.930Z,81.40
2023-03-18T20:15:21.730Z,81.40
2023-03-18T20:17:50.522Z,81.40
2023-03-18T20:20:20.378Z,81.30
2023-03-18T20:22:53.417Z,81.40
2023-03-18T20:25:24.259Z,81.50
2023-03-18T20:27:53.587Z,81.50
2023-03-18T20:30:32.309Z,81.70
2023-03-18T20:33:00.237Z,81.90
2023-03-18T20:35:29.894Z,82.40
2023-03-18T20:37:58.449Z,82.40
2023-03-18T20:40:28.269Z,82.70
2023-03-18T20:42:56.015Z,83.60
2023-03-18T20:45:24.319Z,83.40
2023-03-18T20:47:51.567Z,83.40
2023-03-18T20:50:22.728Z,83.40
2023-03-18T20:52:50.715Z,83.70
2023-03-18T20:55:31.297Z,83.80
2023-03-18T20:57:59.808Z,84.00
2023-03-18T21:00:30.159Z,84.00
2023-03-18T21:02:58.961Z,84.20
2023-03-18T21:05:26.793Z,84.50
2023-03-18T21:07:53.863Z,84.50
2023-03-18T21:10:26.377Z,84.50
2023-03-18T21:12:53.681Z,84.50
2023-03-18T21:15:24.314Z,84.50
2023-03-18T21:17:51.554Z,84.60
2023-03-18T21:20:22.816Z,84.60
2023-03-18T21:22:51.365Z,84.50
2023-03-18T21:25:26.836Z,84.50
2023-03-18T21:27:55.029Z,84.70
2023-03-18T21:30:22.860Z,84.70
2023-03-18T21:32:50.964Z,84.70
2023-03-18T21:35:21.736Z,84.60
2023-03-18T21:37:49.483Z,84.80
2023-03-18T21:40:22.001Z,84.80
2023-03-18T21:42:50.481Z,84.70
2023-03-18T21:45:20.704Z,84.50
2023-03-18T21:47:47.849Z,84.60
2023-03-18T21:50:23.930Z,84.70
2023-03-18T21:52:52.523Z,85.00
2023-03-18T21:55:20.796Z,85.10
2023-03-18T21:57:49.129Z,85.10
2023-03-18T22:00:19.966Z,85.10
2023-03-18T22:02:47.547Z,85.10
2023-03-18T22:05:20.835Z,85.10
2023-03-18T22:07:47.978Z,85.10
2023-03-18T22:10:17.754Z,85.40
2023-03-18T22:12:45.469Z,85.40
2023-03-18T22:15:24.354Z,85.20
2023-03-18T22:17:52.153Z,85.40
2023-03-18T22:20:19.246Z,85.50
2023-03-18T22:22:47.411Z,85.50
2023-03-18T22:25:32.953Z,85.50
2023-03-18T22:28:00.734Z,85.70
2023-03-18T22:30:29.627Z,85.80
2023-03-18T22:32:58.418Z,85.80
2023-03-18T22:35:28.034Z,85.80
2023-03-18T22:37:56.076Z,85.90
2023-03-18T22:40:27.233Z,86.20
2023-03-18T22:42:56.621Z,86.20
2023-03-18T22:45:32.192Z,86.30
2023-03-18T22:48:02.569Z,86.20
2023-03-18T22:50:34.791Z,86.00
2023-03-18T22:53:07.145Z,86.30
2023-03-18T22:55:39.877Z,86.40
2023-03-18T22:58:07.670Z,86.70
2023-03-18T23:00:38.080Z,86.80
2023-03-18T23:03:15.032Z,86.90
2023-03-18T23:05:42.092Z,86.90
2023-03-18T23:08:09.030Z,87.00
2023-03-18T23:10:36.742Z,87.20
2023-03-18T23:13:14.729Z,87.20
2023-03-18T23:15:42.314Z,87.20
2023-03-18T23:18:14.468Z,87.20
2023-03-18T23:20:43.437Z,87.40
2023-03-18T23:23:11.206Z,87.30
2023-03-18T23:25:39.493Z,87.20
2023-03-18T23:28:06.678Z,87.30
2023-03-18T23:30:35.824Z,87.20
2023-03-18T23:33:02.961Z,87.20
2023-03-18T23:35:30.066Z,87.20
2023-03-18T23:37:57.091Z,87.40
2023-03-18T23:40:24.830Z,87.60
2023-03-18T23:42:51.770Z,87.80
2023-03-18T23:45:19.148Z,87.90
2023-03-18T23:47:46.634Z,87.80
2023-03-18T23:50:13.585Z,87.70
2023-03-18T23:52:40.740Z,87.60
2023-03-18T23:55:21.374Z,87.90
2023-03-18T23:57:55.111Z,89.10
